Time;durP1;ratioP1;P1;durP2;ratioP2;P2;SDS_P1;SDS_P2;PMS_P1;PMS_P2;Temp;Humidity;BMP_temperature;BMP_pressure;BME280_temperature;BME280_humidity;BME280_pressure;Samples;Min_cycle;Max_cycle;Signal;HPM_P1;HPM_P2
2022/08/26 00:01:28;;;;;;;3.65;1.38;;;18.70;72.60;;;;;;5061248;28;20063;-80
2022/08/26 00:03:54;;;;;;;6.63;1.20;;;18.60;73.00;;;;;;5052144;28;20029;-79
2022/08/26 00:06:20;;;;;;;3.00;1.30;;;18.60;73.20;;;;;;5068301;28;20067;-79
2022/08/26 00:08:46;;;;;;;4.43;1.50;;;18.60;73.00;;;;;;5056663;28;20021;-79
2022/08/26 00:11:12;;;;;;;7.55;1.27;;;18.60;72.90;;;;;;5064817;28;20028;-79
2022/08/26 00:13:39;;;;;;;3.45;1.20;;;18.60;73.10;;;;;;5054773;28;20496;-79
2022/08/26 00:16:06;;;;;;;8.30;1.30;;;18.60;73.20;;;;;;5054580;28;20543;-79
2022/08/26 00:18:32;;;;;;;9.10;1.40;;;18.60;73.10;;;;;;5036964;28;20021;-79
2022/08/26 00:21:00;;;;;;;4.20;1.27;;;18.50;73.30;;;;;;5054824;28;20115;-79
2022/08/26 00:23:25;;;;;;;2.65;1.00;;;18.50;73.20;;;;;;5054160;28;20033;-79
2022/08/26 00:25:51;;;;;;;6.10;1.40;;;18.50;73.30;;;;;;5068154;28;20054;-79
2022/08/26 00:28:17;;;;;;;5.20;1.20;;;18.50;73.50;;;;;;5074685;28;20033;-79
2022/08/26 00:30:46;;;;;;;4.88;1.83;;;18.40;73.80;;;;;;5057181;28;20074;-79
2022/08/26 00:33:13;;;;;;;6.67;1.30;;;18.30;74.00;;;;;;5037094;28;20435;-79
2022/08/26 00:35:39;;;;;;;2.45;1.10;;;18.30;73.80;;;;;;5053340;28;20055;-79
2022/08/26 00:38:05;;;;;;;6.68;1.80;;;18.30;73.70;;;;;;5054680;28;20021;-79
2022/08/26 00:40:38;;;;;;;3.35;1.50;;;18.30;73.70;;;;;;5036649;28;20044;-79
2022/08/26 00:43:05;;;;;;;4.55;1.25;;;18.30;73.60;;;;;;5038987;28;20021;-79
2022/08/26 00:45:40;;;;;;;8.15;1.60;;;18.30;73.50;;;;;;5074496;28;20506;-79
2022/08/26 00:48:07;;;;;;;7.03;1.52;;;18.40;73.40;;;;;;5044407;28;20111;-79
2022/08/26 00:50:37;;;;;;;4.00;1.27;;;18.40;73.40;;;;;;5054320;28;20041;-79
2022/08/26 00:53:20;;;;;;;2.65;1.30;;;18.30;73.80;;;;;;5054482;28;20082;-79
2022/08/26 00:55:51;;;;;;;5.85;1.23;;;18.30;73.70;;;;;;5054234;28;20082;-79
2022/08/26 00:58:18;;;;;;;7.93;2.00;;;18.30;73.80;;;;;;5039242;28;20018;-79
2022/08/26 01:00:43;;;;;;;5.28;1.52;;;18.10;74.10;;;;;;5058013;28;20025;-79
2022/08/26 01:03:10;;;;;;;8.45;1.83;;;18.00;74.20;;;;;;5057426;28;20036;-79
2022/08/26 01:05:39;;;;;;;2.85;1.50;;;18.00;74.20;;;;;;5054001;28;20036;-79
2022/08/26 01:08:05;;;;;;;6.50;2.17;;;17.90;74.20;;;;;;5079884;28;20085;-79
2022/08/26 01:10:31;;;;;;;8.15;1.67;;;18.00;74.20;;;;;;5097234;28;20039;-78
2022/08/26 01:13:05;;;;;;;4.28;1.83;;;18.00;74.20;;;;;;5057660;28;20069;-79
2022/08/26 01:15:40;;;;;;;5.65;1.60;;;18.00;74.30;;;;;;5057719;28;20500;-79
2022/08/26 01:18:07;;;;;;;4.65;1.45;;;17.90;74.70;;;;;;5057526;28;20392;-79
2022/08/26 01:20:49;;;;;;;7.13;1.50;;;17.90;74.70;;;;;;5057426;28;20036;-79
2022/08/26 01:23:17;;;;;;;5.75;1.50;;;18.00;74.60;;;;;;5057495;28;20452;-79
2022/08/26 01:25:51;;;;;;;5.93;1.60;;;18.00;74.50;;;;;;5060269;28;20028;-79
2022/08/26 01:28:22;;;;;;;6.25;1.85;;;17.90;74.80;;;;;;5039595;28;20029;-79
2022/08/26 01:30:51;;;;;;;7.93;1.45;;;17.90;74.70;;;;;;5056873;28;20021;-79
2022/08/26 01:33:22;;;;;;;3.67;1.33;;;18.00;74.10;;;;;;5055557;28;20025;-79
2022/08/26 01:35:49;;;;;;;4.63;1.95;;;17.90;74.50;;;;;;5057352;28;20023;-79
2022/08/26 01:38:15;;;;;;;5.43;1.52;;;17.80;74.20;;;;;;5039672;28;20059;-79
2022/08/26 01:40:43;;;;;;;3.88;1.65;;;17.80;74.40;;;;;;5038844;28;20382;-79
2022/08/26 01:43:15;;;;;;;10.75;1.77;;;17.80;74.50;;;;;;5057091;28;20028;-79
2022/08/26 01:45:42;;;;;;;6.75;1.65;;;17.80;74.50;;;;;;5039267;28;20033;-79
2022/08/26 01:48:13;;;;;;;7.60;2.35;;;17.70;74.70;;;;;;5056955;28;20029;-79
2022/08/26 01:50:39;;;;;;;6.88;1.70;;;17.70;75.30;;;;;;5056929;28;20029;-79
2022/08/26 01:53:10;;;;;;;8.85;2.08;;;17.70;75.20;;;;;;5072756;28;20084;-79
2022/08/26 01:55:39;;;;;;;5.72;1.35;;;17.70;75.00;;;;;;5059078;28;20029;-79
2022/08/26 01:58:13;;;;;;;4.97;1.60;;;17.70;75.20;;;;;;5058376;28;20032;-79
2022/08/26 02:00:39;;;;;;;6.88;1.75;;;17.60;74.90;;;;;;5051235;28;20097;-79
2022/08/26 02:03:20;;;;;;;3.58;1.50;;;17.60;75.10;;;;;;5038739;28;20652;-78
2022/08/26 02:05:52;;;;;;;6.45;1.95;;;17.60;75.00;;;;;;5073822;28;20483;-79
2022/08/26 02:08:27;;;;;;;4.38;2.05;;;17.60;75.10;;;;;;5069973;28;20064;-79
2022/08/26 02:10:54;;;;;;;5.25;1.40;;;17.60;75.50;;;;;;5038863;28;20029;-79
2022/08/26 02:13:20;;;;;;;5.60;1.52;;;17.60;75.30;;;;;;5038773;28;20063;-79
2022/08/26 02:15:46;;;;;;;6.38;2.00;;;17.60;75.30;;;;;;5055816;28;20075;-79
2022/08/26 02:18:12;;;;;;;4.63;1.75;;;17.60;75.40;;;;;;5056511;28;20060;-79
2022/08/26 02:20:40;;;;;;;6.75;1.73;;;17.50;75.10;;;;;;5056555;28;20503;-79
2022/08/26 02:23:06;;;;;;;4.50;1.80;;;17.60;75.40;;;;;;5070453;28;20036;-79
2022/08/26 02:25:56;;;;;;;3.85;1.73;;;17.60;75.20;;;;;;5058473;28;20123;-79
2022/08/26 02:28:29;;;;;;;4.38;1.70;;;17.50;74.90;;;;;;5058504;28;20439;-79
2022/08/26 02:30:55;;;;;;;4.40;1.75;;;17.50;75.00;;;;;;5055978;28;20037;-79
2022/08/26 02:33:21;;;;;;;3.97;1.50;;;17.50;74.90;;;;;;5055725;28;20031;-79
2022/08/26 02:35:46;;;;;;;4.18;1.80;;;17.40;75.10;;;;;;5038393;28;20098;-79
2022/08/26 02:38:12;;;;;;;4.18;2.00;;;17.40;75.60;;;;;;5038486;28;20029;-79
2022/08/26 02:40:40;;;;;;;3.55;1.75;;;17.50;75.60;;;;;;5061880;28;20032;-79
2022/08/26 02:43:07;;;;;;;5.00;1.73;;;17.50;75.80;;;;;;5057943;28;20168;-79
2022/08/26 02:45:33;;;;;;;3.85;1.95;;;17.50;75.70;;;;;;5042373;28;20033;-79
2022/08/26 02:48:08;;;;;;;2.75;1.48;;;17.50;75.50;;;;;;5055629;28;20029;-79
2022/08/26 02:50:34;;;;;;;4.93;1.98;;;17.40;75.60;;;;;;5037558;28;20048;-79
2022/08/26 02:53:00;;;;;;;4.10;1.90;;;17.40;75.60;;;;;;5039415;28;20025;-79
2022/08/26 02:55:26;;;;;;;7.43;2.00;;;17.30;75.70;;;;;;5057983;28;20137;-79
2022/08/26 02:57:51;;;;;;;4.53;1.80;;;17.40;75.60;;;;;;5070198;28;20032;-79
2022/08/26 03:00:17;;;;;;;7.13;1.90;;;17.30;75.90;;;;;;5055950;28;20480;-79
2022/08/26 03:02:43;;;;;;;4.88;1.67;;;17.30;75.80;;;;;;5038722;28;20031;-79
2022/08/26 03:05:10;;;;;;;13.57;2.40;;;17.30;76.00;;;;;;5060263;28;20016;-79
2022/08/26 03:07:35;;;;;;;4.45;2.03;;;17.20;75.80;;;;;;5072751;28;20093;-79
2022/08/26 03:10:02;;;;;;;4.97;2.22;;;17.30;75.80;;;;;;5055410;28;20036;-79
2022/08/26 03:12:28;;;;;;;4.68;2.00;;;17.30;75.70;;;;;;5037699;28;20025;-79
2022/08/26 03:14:53;;;;;;;4.28;2.13;;;17.30;76.20;;;;;;5055376;28;20397;-79
2022/08/26 03:17:22;;;;;;;5.75;1.60;;;17.30;76.20;;;;;;5037492;28;20040;-79
2022/08/26 03:19:48;;;;;;;4.80;1.90;;;17.30;76.20;;;;;;5055271;28;20085;-79
2022/08/26 03:22:13;;;;;;;7.50;2.28;;;17.30;75.70;;;;;;5054652;28;20536;-79
2022/08/26 03:24:39;;;;;;;7.97;2.67;;;17.30;75.80;;;;;;5045742;28;20036;-79
2022/08/26 03:27:05;;;;;;;7.50;2.08;;;17.30;75.90;;;;;;5074966;28;20051;-80
2022/08/26 03:32:16;;;;;;;6.53;1.70;;;17.20;75.80;;;;;;5055026;28;20142;-79
2022/08/26 03:34:45;;;;;;;4.72;2.17;;;17.20;76.00;;;;;;5055266;28;20025;-80
2022/08/26 03:37:10;;;;;;;10.80;2.45;;;17.20;76.10;;;;;;5055065;28;20523;-79
2022/08/26 03:39:36;;;;;;;5.60;2.08;;;17.10;76.60;;;;;;5037083;28;20498;-79
2022/08/26 03:42:02;;;;;;;5.50;2.75;;;17.10;76.50;;;;;;5054592;28;20064;-79
2022/08/26 03:44:27;;;;;;;6.40;1.95;;;17.10;76.60;;;;;;5055050;28;20103;-79
2022/08/26 03:46:53;;;;;;;4.47;1.52;;;17.10;76.60;;;;;;5061364;28;20029;-79
2022/08/26 03:49:19;;;;;;;4.55;1.92;;;17.10;76.20;;;;;;5044879;28;20102;-79
2022/08/26 03:51:46;;;;;;;5.45;1.90;;;17.00;76.40;;;;;;5037179;28;20032;-79
2022/08/26 03:54:11;;;;;;;4.80;2.08;;;17.10;76.30;;;;;;5055001;28;20024;-79
2022/08/26 03:56:37;;;;;;;5.63;2.05;;;16.90;76.50;;;;;;5037008;28;20488;-79
2022/08/26 03:59:04;;;;;;;9.13;1.83;;;16.90;76.90;;;;;;5054325;28;20021;-79
2022/08/26 04:01:30;;;;;;;6.75;2.45;;;16.90;77.00;;;;;;5036915;28;20033;-80
2022/08/26 04:03:58;;;;;;;9.52;2.40;;;16.90;76.60;;;;;;5054853;28;20057;-79
2022/08/26 04:06:31;;;;;;;6.47;2.28;;;16.90;76.60;;;;;;5066462;28;20028;-79
2022/08/26 04:09:00;;;;;;;4.13;1.90;;;16.80;77.00;;;;;;5076798;28;20055;-80
2022/08/26 04:11:30;;;;;;;3.10;2.15;;;16.80;77.00;;;;;;5066478;28;20035;-80
2022/08/26 04:13:59;;;;;;;5.20;2.10;;;16.80;76.80;;;;;;5054752;28;20037;-80
2022/08/26 04:16:26;;;;;;;8.17;2.83;;;16.80;76.80;;;;;;5036129;28;20027;-79
2022/08/26 04:18:52;;;;;;;4.88;2.40;;;16.80;76.40;;;;;;5036898;28;20028;-80
2022/08/26 04:21:18;;;;;;;9.65;2.40;;;16.90;76.40;;;;;;5036960;28;20029;-79
2022/08/26 04:23:44;;;;;;;5.47;2.00;;;16.80;76.50;;;;;;5036666;28;20033;-80
2022/08/26 04:26:10;;;;;;;3.67;2.15;;;16.80;76.80;;;;;;5036801;28;20044;-79
2022/08/26 04:28:35;;;;;;;7.85;2.42;;;16.80;76.80;;;;;;5055164;28;20064;-80
2022/08/26 04:31:04;;;;;;;7.10;2.00;;;16.80;76.70;;;;;;5036711;28;20064;-79
2022/08/26 04:33:29;;;;;;;3.60;2.08;;;16.80;76.90;;;;;;5062598;28;20055;-79
2022/08/26 04:36:00;;;;;;;3.80;2.00;;;16.70;77.00;;;;;;5078308;28;20033;-80
2022/08/26 04:38:25;;;;;;;4.07;2.47;;;16.70;77.10;;;;;;5049979;28;20499;-80
2022/08/26 04:40:51;;;;;;;5.88;2.03;;;16.70;77.10;;;;;;5058203;28;20071;-80
2022/08/26 04:43:16;;;;;;;6.63;2.15;;;16.70;76.90;;;;;;5040230;28;20024;-79
2022/08/26 04:45:42;;;;;;;3.22;2.22;;;16.70;77.10;;;;;;5040745;28;20029;-78
2022/08/26 04:48:18;;;;;;;5.82;2.40;;;16.60;77.20;;;;;;5040006;28;20041;-79
2022/08/26 04:50:44;;;;;;;6.35;2.17;;;16.60;77.30;;;;;;5057387;28;20098;-79
2022/08/26 04:53:10;;;;;;;6.70;2.22;;;16.60;77.10;;;;;;5058035;28;20104;-78
2022/08/26 04:55:35;;;;;;;4.10;1.90;;;16.70;77.10;;;;;;5058087;28;20064;-79
2022/08/26 04:58:01;;;;;;;7.63;2.50;;;16.70;76.70;;;;;;5040202;28;20202;-78
2022/08/26 05:00:27;;;;;;;4.38;2.50;;;16.70;76.80;;;;;;5039843;28;20032;-79
2022/08/26 05:02:52;;;;;;;7.85;2.30;;;16.70;76.60;;;;;;5057312;28;20044;-79
2022/08/26 05:05:41;;;;;;;5.68;2.00;;;16.70;76.60;;;;;;5073569;28;20024;-80
2022/08/26 05:08:08;;;;;;;2.95;1.70;;;16.60;76.60;;;;;;5080391;28;20111;-78
2022/08/26 05:10:37;;;;;;;3.95;1.95;;;16.60;77.10;;;;;;5075790;28;20482;-79
2022/08/26 05:13:02;;;;;;;3.33;2.10;;;16.60;77.10;;;;;;5057712;28;20049;-79
2022/08/26 05:15:28;;;;;;;5.97;2.30;;;16.60;77.10;;;;;;5057597;28;20072;-79
2022/08/26 05:17:54;;;;;;;4.45;2.15;;;16.60;77.20;;;;;;5057358;28;20029;-80
2022/08/26 05:20:20;;;;;;;4.85;1.77;;;16.70;77.20;;;;;;5069538;28;20036;-80
2022/08/26 05:22:46;;;;;;;7.18;2.13;;;16.60;77.30;;;;;;5077454;28;20028;-80
2022/08/26 05:25:12;;;;;;;6.45;2.20;;;16.60;77.10;;;;;;5062159;28;20036;-80
2022/08/26 05:27:37;;;;;;;4.30;1.75;;;16.60;77.10;;;;;;5039015;28;20385;-80
2022/08/26 05:30:05;;;;;;;6.80;2.30;;;16.60;76.90;;;;;;5057022;28;20086;-80
2022/08/26 05:32:30;;;;;;;6.93;2.22;;;16.60;77.30;;;;;;5038970;28;20047;-80
2022/08/26 05:34:56;;;;;;;4.82;2.22;;;16.60;77.10;;;;;;5057342;28;20435;-81
2022/08/26 05:37:22;;;;;;;9.90;1.88;;;16.70;76.90;;;;;;5068997;28;20030;-81
2022/08/26 05:39:48;;;;;;;5.68;1.98;;;16.60;77.10;;;;;;5075836;28;20047;-82
2022/08/26 05:42:14;;;;;;;4.43;1.67;;;16.70;77.20;;;;;;5053048;28;20438;-82
2022/08/26 05:44:40;;;;;;;3.47;1.55;;;16.60;77.00;;;;;;5055485;28;20396;-80
2022/08/26 05:47:06;;;;;;;5.90;1.77;;;16.60;76.90;;;;;;5056740;28;20051;-80
2022/08/26 05:49:31;;;;;;;7.65;1.70;;;16.70;77.00;;;;;;5057024;28;20029;-81
2022/08/26 05:51:57;;;;;;;9.65;2.15;;;16.60;77.10;;;;;;5057115;28;20035;-81
2022/08/26 05:54:23;;;;;;;13.82;2.40;;;16.60;77.00;;;;;;5056889;28;20100;-80
2022/08/26 05:56:50;;;;;;;2.85;1.80;;;16.70;76.90;;;;;;5057099;28;20017;-80
2022/08/26 05:59:15;;;;;;;4.90;1.95;;;16.70;77.10;;;;;;5061178;28;20107;-81
2022/08/26 06:01:42;;;;;;;5.70;1.17;;;16.70;77.30;;;;;;5062615;28;20068;-82
2022/08/26 06:04:08;;;;;;;4.40;1.30;;;16.70;77.20;;;;;;5066260;28;20024;-82
2022/08/26 06:06:35;;;;;;;4.50;1.85;;;16.70;77.20;;;;;;5071433;28;20037;-82
2022/08/26 06:09:05;;;;;;;7.95;1.58;;;16.70;77.20;;;;;;5046314;28;20067;-81
2022/08/26 06:11:32;;;;;;;9.57;2.15;;;16.70;77.30;;;;;;5065557;28;20021;-81
2022/08/26 06:14:01;;;;;;;4.57;1.40;;;16.70;77.00;;;;;;5055377;28;20041;-82
2022/08/26 06:16:27;;;;;;;3.40;1.70;;;16.70;77.30;;;;;;5048988;28;20028;-82
2022/08/26 06:18:53;;;;;;;4.43;1.40;;;16.80;77.10;;;;;;5047502;28;20025;-82
2022/08/26 06:21:27;;;;;;;2.50;1.48;;;16.80;77.10;;;;;;5066103;28;20878;-82
2022/08/26 06:26:41;;;;;;;3.63;1.55;;;16.80;77.30;;;;;;5068759;28;20067;-83
2022/08/26 06:29:07;;;;;;;4.45;1.50;;;16.80;77.40;;;;;;5042849;28;20024;-81
2022/08/26 06:31:35;;;;;;;5.63;1.80;;;16.80;77.20;;;;;;5064994;28;20067;-81
2022/08/26 06:34:01;;;;;;;3.83;1.60;;;16.80;77.40;;;;;;5064536;28;20163;-82
2022/08/26 06:36:30;;;;;;;4.72;1.48;;;16.90;77.30;;;;;;5048787;28;20017;-80
2022/08/26 06:39:00;;;;;;;8.27;2.23;;;16.90;77.70;;;;;;5064222;28;20057;-80
2022/08/26 06:41:26;;;;;;;3.30;1.50;;;16.90;77.60;;;;;;5045905;28;20639;-81
2022/08/26 06:43:52;;;;;;;2.95;1.17;;;16.90;77.50;;;;;;5064639;28;20025;-80
2022/08/26 06:46:20;;;;;;;7.53;1.30;;;17.00;77.50;;;;;;5064832;28;20028;-80
2022/08/26 06:48:46;;;;;;;4.93;1.55;;;17.00;77.90;;;;;;5048346;28;20024;-80
2022/08/26 06:51:21;;;;;;;4.68;1.38;;;17.10;77.80;;;;;;5046757;28;20024;-81
2022/08/26 06:53:49;;;;;;;6.60;1.50;;;17.10;77.80;;;;;;5062702;28;20057;-80
2022/08/26 06:56:18;;;;;;;3.08;1.23;;;17.10;77.90;;;;;;5064870;28;20012;-80
2022/08/26 06:58:44;;;;;;;4.72;1.40;;;17.10;78.20;;;;;;5066080;28;20016;-80
2022/08/26 07:01:31;;;;;;;7.70;1.80;;;17.20;77.80;;;;;;5064241;28;20021;-80
2022/08/26 07:03:59;;;;;;;5.72;1.10;;;17.20;78.00;;;;;;5046931;28;20039;-80
2022/08/26 07:06:27;;;;;;;6.05;1.27;;;17.20;77.70;;;;;;5066787;28;20031;-80
2022/08/26 07:09:00;;;;;;;2.65;1.38;;;17.30;77.70;;;;;;5064661;28;20099;-80
2022/08/26 07:11:26;;;;;;;7.03;1.85;;;17.30;77.80;;;;;;5065715;28;20020;-80
2022/08/26 07:13:52;;;;;;;6.80;1.38;;;17.40;77.20;;;;;;5066335;28;20040;-80
2022/08/26 07:16:18;;;;;;;2.40;1.00;;;17.50;77.40;;;;;;5065730;28;20029;-80
2022/08/26 07:18:44;;;;;;;6.68;1.40;;;17.50;77.60;;;;;;5064224;28;20025;-80
2022/08/26 07:21:12;;;;;;;9.02;1.60;;;17.50;77.90;;;;;;5067748;28;20103;-80
2022/08/26 07:23:38;;;;;;;6.90;1.50;;;17.50;77.90;;;;;;5064028;28;20041;-80
2022/08/26 07:26:10;;;;;;;4.60;1.40;;;17.60;77.50;;;;;;5068651;28;20491;-80
2022/08/26 07:28:36;;;;;;;5.65;1.23;;;17.70;77.60;;;;;;5066075;28;20111;-80
2022/08/26 07:31:07;;;;;;;5.78;1.42;;;17.80;77.10;;;;;;5057364;28;20040;-80
2022/08/26 07:33:33;;;;;;;8.38;1.50;;;17.80;77.00;;;;;;5075542;28;20078;-80
2022/08/26 07:35:59;;;;;;;7.10;1.42;;;17.90;77.20;;;;;;5074837;28;20728;-80
2022/08/26 07:38:24;;;;;;;2.83;1.17;;;18.00;77.10;;;;;;5057487;28;20020;-80
2022/08/26 07:40:50;;;;;;;5.78;1.27;;;18.10;76.80;;;;;;5057473;28;20036;-81
2022/08/26 07:43:17;;;;;;;4.85;1.42;;;18.20;76.90;;;;;;5065403;28;20028;-80
2022/08/26 07:45:43;;;;;;;8.18;1.55;;;18.20;76.90;;;;;;5062849;28;20024;-80
2022/08/26 07:48:09;;;;;;;4.50;1.85;;;18.40;76.90;;;;;;5087824;28;20048;-78
2022/08/26 07:50:35;;;;;;;2.63;1.23;;;18.60;76.60;;;;;;5070395;28;20071;-80
2022/08/26 07:53:02;;;;;;;6.15;1.15;;;18.80;75.90;;;;;;5065719;28;20044;-80
2022/08/26 07:55:28;;;;;;;10.20;1.30;;;19.80;74.50;;;;;;5070441;28;20047;-80
2022/08/26 07:57:54;;;;;;;3.50;1.15;;;22.00;68.90;;;;;;5064048;28;20128;-80
2022/08/26 08:00:20;;;;;;;7.40;1.33;;;23.80;62.50;;;;;;5050998;28;20129;-79
2022/08/26 08:02:47;;;;;;;4.07;1.20;;;25.30;59.00;;;;;;5051768;28;20036;-79
2022/08/26 08:05:15;;;;;;;2.72;1.05;;;25.70;56.70;;;;;;5044899;28;20024;-79
2022/08/26 08:07:43;;;;;;;5.22;1.40;;;26.80;54.20;;;;;;5093838;28;20051;-78
2022/08/26 08:10:12;;;;;;;5.25;1.20;;;27.50;52.40;;;;;;5070130;28;20111;-79
2022/08/26 08:12:39;;;;;;;5.45;1.08;;;27.90;51.20;;;;;;5075627;28;20049;-79
2022/08/26 08:15:06;;;;;;;5.78;1.20;;;28.30;49.40;;;;;;5071011;28;20052;-79
2022/08/26 08:17:33;;;;;;;5.57;1.10;;;28.30;49.20;;;;;;5076093;28;20025;-78
2022/08/26 08:20:00;;;;;;;6.65;1.10;;;28.30;49.60;;;;;;5056627;28;20037;-77
2022/08/26 08:22:26;;;;;;;7.20;1.77;;;27.80;50.40;;;;;;5075112;28;20029;-78
2022/08/26 08:24:52;;;;;;;7.03;1.42;;;27.20;51.80;;;;;;5051406;28;20934;-78
2022/08/26 08:27:18;;;;;;;4.97;1.00;;;26.80;52.40;;;;;;5055474;28;20040;-78
2022/08/26 08:29:46;;;;;;;5.03;0.90;;;26.40;53.80;;;;;;5036540;28;20029;-78
2022/08/26 08:32:12;;;;;;;9.27;1.70;;;26.00;55.00;;;;;;5058114;28;20048;-78
2022/08/26 08:34:38;;;;;;;6.07;1.73;;;25.60;55.50;;;;;;5055542;28;20100;-78
2022/08/26 08:37:05;;;;;;;5.90;1.45;;;25.40;56.10;;;;;;5055264;28;20057;-78
2022/08/26 08:39:32;;;;;;;5.43;1.05;;;25.20;56.40;;;;;;5037181;28;20492;-77
2022/08/26 08:42:32;;;;;;;4.97;1.40;;;25.10;57.10;;;;;;5055744;28;20067;-79
2022/08/26 08:45:09;;;;;;;12.98;1.85;;;25.30;56.30;;;;;;5037978;28;20149;-79
2022/08/26 08:47:46;;;;;;;6.30;1.20;;;25.60;54.70;;;;;;5055784;28;20614;-78
2022/08/26 08:50:11;;;;;;;5.03;1.23;;;25.70;55.80;;;;;;5063977;28;20028;-78
2022/08/26 08:52:40;;;;;;;7.97;1.90;;;25.60;54.70;;;;;;5058323;28;20040;-80
2022/08/26 08:55:06;;;;;;;4.45;1.40;;;25.20;55.30;;;;;;5065820;28;20024;-80
2022/08/26 08:57:44;;;;;;;6.10;1.02;;;24.70;57.10;;;;;;5060848;28;20427;-79
2022/08/26 09:00:17;;;;;;;6.25;1.05;;;24.30;58.50;;;;;;5062597;28;20383;-80
2022/08/26 09:02:58;;;;;;;7.45;1.85;;;24.00;59.60;;;;;;5046710;28;20110;-80
2022/08/26 09:05:28;;;;;;;10.63;1.42;;;23.80;60.20;;;;;;5052906;28;20062;-80
2022/08/26 09:08:01;;;;;;;;;;;23.70;60.30;;;;;;5038299;28;20115;-80
2022/08/26 09:10:33;;;;;;;6.05;1.90;;;23.50;60.80;;;;;;5057798;28;19912;-80
2022/08/26 09:13:01;;;;;;;13.95;2.72;;;23.60;60.90;;;;;;5058874;28;20017;-80
2022/08/26 09:15:49;;;;;;;7.18;1.42;;;23.70;60.20;;;;;;5055189;28;20025;-79
2022/08/26 09:18:43;;;;;;;2.72;1.15;;;23.80;60.10;;;;;;5055274;28;20026;-81
2022/08/26 09:21:11;;;;;;;4.30;1.52;;;23.70;59.90;;;;;;5056651;28;20037;-78
2022/08/26 09:23:40;;;;;;;5.38;1.48;;;24.20;59.60;;;;;;5068140;28;20029;-79
2022/08/26 09:26:15;;;;;;;3.40;1.17;;;25.00;57.40;;;;;;5037018;28;20142;-79
2022/08/26 09:28:46;;;;;;;7.07;1.15;;;26.80;53.80;;;;;;5036407;28;20075;-79
2022/08/26 09:31:29;;;;;;;6.57;1.00;;;26.00;53.20;;;;;;5040883;28;20036;-80
2022/08/26 09:34:21;;;;;;;4.40;1.00;;;25.30;54.30;;;;;;5057243;28;20021;-80
2022/08/26 09:37:43;;;;;;;5.95;1.65;;;24.70;55.10;;;;;;5062942;28;20025;-80
2022/08/26 09:39:44;;;;;;;6.72;1.23;;;25.00;54.90;;;;;;5057697;28;20400;-81
2022/08/26 09:42:24;;;;;;;5.55;1.27;;;27.50;49.90;;;;;;5048224;28;20032;-80
2022/08/26 09:45:09;;;;;;;3.83;0.75;;;28.80;46.90;;;;;;5048170;28;20028;-80
2022/08/26 09:47:46;;;;;;;6.00;1.05;;;27.60;48.40;;;;;;5065851;28;20044;-79
2022/08/26 09:50:26;;;;;;;8.00;1.10;;;26.70;50.50;;;;;;5067127;28;20039;-80
2022/08/26 09:53:11;;;;;;;4.68;1.33;;;26.60;51.50;;;;;;5077469;28;20482;-80
2022/08/26 09:55:40;;;;;;;3.22;1.13;;;28.00;49.10;;;;;;5066678;28;20044;-79
2022/08/26 09:58:07;;;;;;;6.88;1.17;;;29.50;45.60;;;;;;5057015;28;20025;-81
2022/08/26 10:00:35;;;;;;;4.00;1.00;;;30.80;44.40;;;;;;5057114;28;20076;-80
2022/08/26 10:03:08;;;;;;;3.70;1.05;;;31.50;41.40;;;;;;5061628;28;20092;-80
2022/08/26 10:05:53;;;;;;;4.03;1.23;;;32.20;39.30;;;;;;5083938;28;20020;-80
2022/08/26 10:08:30;;;;;;;7.75;1.20;;;32.60;38.70;;;;;;5076834;28;20037;-84
2022/08/26 10:11:02;;;;;;;5.45;1.13;;;32.80;38.40;;;;;;5038794;28;20499;-80
2022/08/26 10:13:41;;;;;;;5.40;1.13;;;32.90;38.00;;;;;;5064757;28;20068;-80
2022/08/26 10:16:28;;;;;;;4.63;1.00;;;33.00;37.00;;;;;;5066911;28;20099;-79
2022/08/26 10:19:20;;;;;;;10.00;1.65;;;33.00;37.00;;;;;;5067008;28;20100;-79
2022/08/26 10:21:56;;;;;;;5.03;1.25;;;32.80;37.60;;;;;;5063698;28;20475;-79
2022/08/26 10:24:44;;;;;;;2.40;0.93;;;32.70;37.00;;;;;;5065019;28;20021;-79
2022/08/26 10:27:47;;;;;;;3.63;0.85;;;32.40;38.60;;;;;;5048513;28;20111;-79
2022/08/26 10:30:20;;;;;;;4.55;0.95;;;31.30;39.40;;;;;;5063206;28;20025;-80
2022/08/26 10:33:00;;;;;;;4.88;1.23;;;30.30;40.40;;;;;;5048849;28;20442;-80
2022/08/26 10:35:26;;;;;;;4.25;0.90;;;29.30;42.80;;;;;;5049052;28;20487;-78
2022/08/26 10:37:56;;;;;;;3.85;0.85;;;28.70;44.00;;;;;;5042363;28;20032;-79
2022/08/26 10:40:28;;;;;;;5.68;1.15;;;28.30;44.10;;;;;;5058165;28;20086;-78
2022/08/26 10:43:18;;;;;;;8.07;1.20;;;28.00;45.50;;;;;;5039479;28;20025;-75
2022/08/26 10:46:03;;;;;;;7.43;1.20;;;27.80;45.80;;;;;;5039771;28;20025;-76
2022/08/26 10:48:55;;;;;;;3.92;1.13;;;27.60;45.10;;;;;;5056298;28;20013;-75
2022/08/26 10:51:28;;;;;;;4.28;0.93;;;27.70;46.10;;;;;;5055980;28;20055;-75
2022/08/26 10:54:03;;;;;;;3.58;0.80;;;27.60;45.90;;;;;;5038083;28;20400;-75
2022/08/26 10:56:48;;;;;;;4.60;0.90;;;27.40;46.40;;;;;;5049957;28;20025;-76
2022/08/26 10:59:17;;;;;;;4.05;1.20;;;27.00;46.90;;;;;;5048802;28;20036;-78
2022/08/26 11:02:26;;;;;;;4.25;0.90;;;26.90;47.10;;;;;;5042471;28;20557;-77
2022/08/26 11:05:05;;;;;;;4.38;0.90;;;26.90;46.90;;;;;;5032735;28;20033;-77
2022/08/26 11:07:36;;;;;;;6.10;1.43;;;27.00;46.70;;;;;;5096245;28;20031;-78
2022/08/26 11:10:19;;;;;;;4.15;1.00;;;27.00;47.10;;;;;;5072075;28;20784;-77
2022/08/26 11:13:03;;;;;;;2.55;0.75;;;27.30;46.50;;;;;;5037841;28;20024;-77
2022/08/26 11:15:28;;;;;;;6.10;1.38;;;27.40;45.90;;;;;;5036712;28;20045;-77
2022/08/26 11:18:06;;;;;;;4.18;1.08;;;27.40;45.00;;;;;;5040540;28;20033;-77
2022/08/26 11:20:38;;;;;;;3.97;0.73;;;27.40;46.10;;;;;;5055891;28;20017;-78
2022/08/26 11:23:19;;;;;;;3.25;1.20;;;27.40;44.70;;;;;;5037254;28;20032;-77
2022/08/26 11:26:09;;;;;;;3.45;0.82;;;27.10;45.90;;;;;;5055521;28;20035;-76
2022/08/26 11:28:49;;;;;;;2.22;0.70;;;26.90;45.60;;;;;;5061439;28;20913;-76
2022/08/26 11:31:24;;;;;;;2.35;0.70;;;27.00;44.80;;;;;;5065584;28;20024;-76
2022/08/26 11:34:00;;;;;;;2.42;0.75;;;27.00;43.50;;;;;;5045678;28;20892;-76
2022/08/26 11:36:41;;;;;;;3.55;1.00;;;26.80;44.20;;;;;;5064619;28;20142;-77
2022/08/26 11:39:27;;;;;;;3.00;1.02;;;26.80;45.40;;;;;;5061160;28;20140;-77
2022/08/26 11:41:58;;;;;;;2.30;0.70;;;27.00;43.80;;;;;;5046339;28;20547;-77
2022/08/26 11:44:34;;;;;;;2.35;0.75;;;27.20;42.90;;;;;;5062918;28;20021;-77
2022/08/26 11:47:03;;;;;;;3.55;0.95;;;27.00;43.10;;;;;;5062084;28;20111;-77
2022/08/26 11:49:31;;;;;;;3.85;0.82;;;26.60;44.00;;;;;;5041170;28;20021;-77
2022/08/26 11:52:26;;;;;;;3.95;0.90;;;26.40;44.70;;;;;;5055907;28;20041;-77
2022/08/26 11:55:08;;;;;;;2.60;0.82;;;26.00;45.20;;;;;;5027805;28;20511;-77
2022/08/26 11:57:40;;;;;;;3.70;0.80;;;25.80;46.10;;;;;;5068689;28;20025;-77
2022/08/26 12:00:09;;;;;;;4.13;0.88;;;25.90;46.30;;;;;;5061486;28;20036;-77
2022/08/26 12:02:34;;;;;;;7.25;1.10;;;26.20;45.90;;;;;;5074749;28;20031;-77
2022/08/26 12:05:01;;;;;;;4.03;0.80;;;26.30;45.20;;;;;;5076994;28;20037;-77
2022/08/26 12:07:28;;;;;;;6.88;1.40;;;26.40;44.90;;;;;;5057630;28;20033;-77
2022/08/26 12:09:59;;;;;;;4.38;1.10;;;26.60;45.90;;;;;;5056402;28;20087;-77
2022/08/26 12:12:37;;;;;;;4.40;0.88;;;26.80;45.50;;;;;;5035554;28;20017;-77
2022/08/26 12:15:09;;;;;;;3.05;0.82;;;26.70;45.10;;;;;;5052647;28;20524;-76
2022/08/26 12:17:35;;;;;;;4.07;0.73;;;26.50;45.40;;;;;;5053048;28;20024;-78
2022/08/26 12:20:01;;;;;;;2.30;0.63;;;26.30;46.10;;;;;;5053191;28;20120;-77
2022/08/26 12:22:34;;;;;;;5.32;0.80;;;26.30;46.10;;;;;;5058361;28;20076;-78
2022/08/26 12:25:05;;;;;;;3.08;0.68;;;26.30;43.80;;;;;;5050216;28;20109;-78
2022/08/26 12:27:35;;;;;;;2.20;1.05;;;26.40;43.80;;;;;;5053591;28;20047;-77
2022/08/26 12:30:04;;;;;;;;;;;26.50;44.50;;;;;;5055277;28;20103;-78
2022/08/26 12:32:30;;;;;;;6.07;0.88;;;26.70;44.10;;;;;;5054862;28;19912;-78
2022/08/26 12:34:56;;;;;;;3.80;1.02;;;26.80;44.20;;;;;;5054580;28;20365;-78
2022/08/26 12:37:33;;;;;;;3.78;1.25;;;26.70;44.70;;;;;;5054924;28;20111;-78
2022/08/26 12:40:33;;;;;;;4.15;0.90;;;26.30;43.90;;;;;;5054384;28;20025;-78
2022/08/26 12:43:00;;;;;;;2.78;0.73;;;26.10;45.20;;;;;;5054834;28;20144;-78
2022/08/26 12:45:38;;;;;;;2.47;0.70;;;25.80;46.30;;;;;;5037057;28;20036;-78
2022/08/26 12:48:10;;;;;;;3.70;1.08;;;25.80;45.90;;;;;;5054774;28;20025;-78
2022/08/26 12:50:43;;;;;;;5.97;1.00;;;26.00;45.30;;;;;;5039099;28;20695;-77
2022/08/26 12:53:08;;;;;;;4.60;0.77;;;26.00;44.20;;;;;;5055675;28;20082;-78
2022/08/26 12:55:53;;;;;;;4.63;1.00;;;26.20;43.30;;;;;;5060197;28;20108;-78
2022/08/26 12:58:21;;;;;;;5.95;0.77;;;26.30;43.50;;;;;;5060078;28;20111;-78
2022/08/26 13:00:53;;;;;;;2.92;0.85;;;26.40;43.00;;;;;;5044546;28;20510;-78
2022/08/26 13:03:36;;;;;;;3.45;0.70;;;26.30;43.40;;;;;;5071952;28;20025;-78
2022/08/26 13:06:31;;;;;;;3.30;1.13;;;26.00;44.80;;;;;;5077870;28;20107;-78
2022/08/26 13:08:59;;;;;;;2.58;0.63;;;26.20;43.60;;;;;;5076118;28;20067;-78
2022/08/26 13:11:34;;;;;;;3.53;0.98;;;26.30;44.10;;;;;;5066452;28;20036;-78